< < Back
Terminal Aerodrome Forecast


Current Version              Previous Versions:   1  2  3  4  5  6  7  8  9  

Terminal Aerodrome Forecast

930
FTUS42 KCAE 101733
TAFCAE
TAF
KCAE 101733Z 1018/1118 28018G28KT P6SM SCT040
     FM102300 26007KT P6SM SKC
     FM111400 26006KT P6SM SCT250=

Latest METAR

607
SAUS80 KWBC 101700
MTRCAE
METAR KCAE 101656Z 28016KT 10SM BKN042 02/M09 A3003 RMK AO2 SLP172
T00171094


USA.gov is the U.S. government's official web portal to all federal, state and local government web resources and services.